sensor_id;sensor_type;location;lat;lon;timestamp;P1;durP1;ratioP1;P2;durP2;ratioP2
47367;SDS011;34646;47.964;7.982;2022-08-19T00:01:43;1.65;;;1.55;;
47367;SDS011;34646;47.964;7.982;2022-08-19T00:07:44;1.48;;;1.30;;
47367;SDS011;34646;47.964;7.982;2022-08-19T00:13:45;1.90;;;1.40;;
47367;SDS011;34646;47.964;7.982;2022-08-19T00:19:48;1.92;;;1.55;;
47367;SDS011;34646;47.964;7.982;2022-08-19T00:25:48;2.07;;;1.50;;
47367;SDS011;34646;47.964;7.982;2022-08-19T00:31:50;2.03;;;1.40;;
47367;SDS011;34646;47.964;7.982;2022-08-19T00:37:54;3.00;;;1.55;;
47367;SDS011;34646;47.964;7.982;2022-08-19T00:50:04;1.52;;;1.30;;
47367;SDS011;34646;47.964;7.982;2022-08-19T01:02:06;2.03;;;1.50;;
47367;SDS011;34646;47.964;7.982;2022-08-19T01:08:07;1.95;;;1.70;;
47367;SDS011;34646;47.964;7.982;2022-08-19T01:20:11;2.77;;;1.60;;
47367;SDS011;34646;47.964;7.982;2022-08-19T01:26:16;1.70;;;1.48;;
47367;SDS011;34646;47.964;7.982;2022-08-19T01:32:20;2.15;;;1.85;;
47367;SDS011;34646;47.964;7.982;2022-08-19T01:38:22;1.83;;;1.30;;
47367;SDS011;34646;47.964;7.982;2022-08-19T01:44:25;2.80;;;1.50;;
47367;SDS011;34646;47.964;7.982;2022-08-19T01:50:26;1.90;;;1.60;;
47367;SDS011;34646;47.964;7.982;2022-08-19T01:56:27;1.95;;;1.50;;
47367;SDS011;34646;47.964;7.982;2022-08-19T02:02:28;2.00;;;1.60;;
47367;SDS011;34646;47.964;7.982;2022-08-19T02:08:29;1.80;;;1.63;;
47367;SDS011;34646;47.964;7.982;2022-08-19T02:20:30;1.90;;;1.70;;
47367;SDS011;34646;47.964;7.982;2022-08-19T02:26:31;2.37;;;1.70;;
47367;SDS011;34646;47.964;7.982;2022-08-19T02:32:32;1.98;;;1.70;;
47367;SDS011;34646;47.964;7.982;2022-08-19T02:38:34;2.20;;;1.67;;
47367;SDS011;34646;47.964;7.982;2022-08-19T02:44:37;2.00;;;1.80;;
47367;SDS011;34646;47.964;7.982;2022-08-19T02:50:39;1.90;;;1.70;;
47367;SDS011;34646;47.964;7.982;2022-08-19T03:02:41;2.13;;;1.67;;
47367;SDS011;34646;47.964;7.982;2022-08-19T03:08:42;2.53;;;1.80;;
47367;SDS011;34646;47.964;7.982;2022-08-19T03:14:44;2.35;;;1.77;;
47367;SDS011;34646;47.964;7.982;2022-08-19T03:20:50;1.63;;;1.30;;
47367;SDS011;34646;47.964;7.982;2022-08-19T03:26:55;2.03;;;1.35;;
47367;SDS011;34646;47.964;7.982;2022-08-19T03:32:57;2.20;;;1.70;;
47367;SDS011;34646;47.964;7.982;2022-08-19T03:38:58;4.67;;;1.73;;
47367;SDS011;34646;47.964;7.982;2022-08-19T03:45:00;1.90;;;1.70;;
47367;SDS011;34646;47.964;7.982;2022-08-19T03:51:01;1.90;;;1.60;;
47367;SDS011;34646;47.964;7.982;2022-08-19T03:57:03;1.65;;;1.55;;
47367;SDS011;34646;47.964;7.982;2022-08-19T04:09:07;1.90;;;1.70;;
47367;SDS011;34646;47.964;7.982;2022-08-19T04:15:09;2.03;;;1.73;;
47367;SDS011;34646;47.964;7.982;2022-08-19T04:21:14;2.40;;;1.85;;
47367;SDS011;34646;47.964;7.982;2022-08-19T04:27:16;2.08;;;1.67;;
47367;SDS011;34646;47.964;7.982;2022-08-19T04:33:18;2.33;;;1.90;;
47367;SDS011;34646;47.964;7.982;2022-08-19T04:39:22;2.33;;;1.75;;
47367;SDS011;34646;47.964;7.982;2022-08-19T04:45:45;2.15;;;1.85;;
47367;SDS011;34646;47.964;7.982;2022-08-19T04:51:46;2.00;;;1.67;;
47367;SDS011;34646;47.964;7.982;2022-08-19T04:57:47;3.20;;;2.00;;
47367;SDS011;34646;47.964;7.982;2022-08-19T05:03:49;1.90;;;1.70;;
47367;SDS011;34646;47.964;7.982;2022-08-19T05:09:49;2.13;;;1.50;;
47367;SDS011;34646;47.964;7.982;2022-08-19T05:15:54;2.13;;;1.70;;
47367;SDS011;34646;47.964;7.982;2022-08-19T05:21:56;2.65;;;1.80;;
47367;SDS011;34646;47.964;7.982;2022-08-19T05:28:18;2.03;;;1.73;;
47367;SDS011;34646;47.964;7.982;2022-08-19T05:34:20;2.60;;;1.75;;
47367;SDS011;34646;47.964;7.982;2022-08-19T05:40:24;2.10;;;1.80;;
47367;SDS011;34646;47.964;7.982;2022-08-19T05:46:25;1.67;;;1.37;;
47367;SDS011;34646;47.964;7.982;2022-08-19T05:52:26;2.27;;;1.90;;
47367;SDS011;34646;47.964;7.982;2022-08-19T05:58:28;2.30;;;1.67;;
47367;SDS011;34646;47.964;7.982;2022-08-19T06:04:28;2.60;;;2.20;;
47367;SDS011;34646;47.964;7.982;2022-08-19T06:10:29;2.10;;;1.80;;
47367;SDS011;34646;47.964;7.982;2022-08-19T06:16:30;2.10;;;1.87;;
47367;SDS011;34646;47.964;7.982;2022-08-19T06:22:31;2.25;;;1.67;;
47367;SDS011;34646;47.964;7.982;2022-08-19T06:28:37;2.13;;;1.58;;
47367;SDS011;34646;47.964;7.982;2022-08-19T06:34:42;2.15;;;1.70;;
47367;SDS011;34646;47.964;7.982;2022-08-19T06:40:43;2.17;;;1.90;;
47367;SDS011;34646;47.964;7.982;2022-08-19T06:46:44;2.70;;;1.90;;
47367;SDS011;34646;47.964;7.982;2022-08-19T06:52:44;1.97;;;1.63;;
47367;SDS011;34646;47.964;7.982;2022-08-19T06:58:47;1.77;;;1.60;;
47367;SDS011;34646;47.964;7.982;2022-08-19T07:04:51;2.30;;;1.80;;
47367;SDS011;34646;47.964;7.982;2022-08-19T07:16:54;2.63;;;2.10;;
47367;SDS011;34646;47.964;7.982;2022-08-19T07:22:56;2.28;;;1.90;;
47367;SDS011;34646;47.964;7.982;2022-08-19T07:28:56;2.03;;;1.53;;
47367;SDS011;34646;47.964;7.982;2022-08-19T07:34:58;2.10;;;1.83;;
47367;SDS011;34646;47.964;7.982;2022-08-19T07:41:00;2.15;;;1.83;;
47367;SDS011;34646;47.964;7.982;2022-08-19T07:47:01;2.00;;;1.70;;
47367;SDS011;34646;47.964;7.982;2022-08-19T07:53:02;2.38;;;1.88;;
47367;SDS011;34646;47.964;7.982;2022-08-19T07:59:03;2.20;;;1.97;;
47367;SDS011;34646;47.964;7.982;2022-08-19T08:11:24;2.65;;;1.88;;
47367;SDS011;34646;47.964;7.982;2022-08-19T08:17:25;2.37;;;1.90;;
47367;SDS011;34646;47.964;7.982;2022-08-19T08:23:27;3.15;;;2.10;;
47367;SDS011;34646;47.964;7.982;2022-08-19T08:29:30;2.38;;;1.73;;
47367;SDS011;34646;47.964;7.982;2022-08-19T08:35:31;2.13;;;1.92;;
47367;SDS011;34646;47.964;7.982;2022-08-19T08:41:36;1.97;;;1.77;;
47367;SDS011;34646;47.964;7.982;2022-08-19T08:47:49;1.90;;;1.67;;
47367;SDS011;34646;47.964;7.982;2022-08-19T08:53:53;2.03;;;1.83;;
47367;SDS011;34646;47.964;7.982;2022-08-19T08:59:55;2.20;;;1.80;;
47367;SDS011;34646;47.964;7.982;2022-08-19T09:12:22;2.28;;;2.08;;
47367;SDS011;34646;47.964;7.982;2022-08-19T09:18:49;2.20;;;2.00;;
47367;SDS011;34646;47.964;7.982;2022-08-19T09:24:55;2.30;;;2.00;;
47367;SDS011;34646;47.964;7.982;2022-08-19T09:30:56;2.60;;;2.00;;
47367;SDS011;34646;47.964;7.982;2022-08-19T09:36:56;2.20;;;1.90;;
47367;SDS011;34646;47.964;7.982;2022-08-19T09:42:58;2.83;;;1.92;;
47367;SDS011;34646;47.964;7.982;2022-08-19T09:49:02;2.35;;;2.00;;
47367;SDS011;34646;47.964;7.982;2022-08-19T09:55:06;2.10;;;1.90;;
47367;SDS011;34646;47.964;7.982;2022-08-19T10:01:09;2.47;;;2.13;;
47367;SDS011;34646;47.964;7.982;2022-08-19T10:07:15;2.05;;;1.80;;
47367;SDS011;34646;47.964;7.982;2022-08-19T10:13:17;3.00;;;2.23;;
47367;SDS011;34646;47.964;7.982;2022-08-19T10:19:23;2.50;;;2.20;;
47367;SDS011;34646;47.964;7.982;2022-08-19T10:25:24;2.13;;;1.90;;
47367;SDS011;34646;47.964;7.982;2022-08-19T10:31:27;2.85;;;2.35;;
47367;SDS011;34646;47.964;7.982;2022-08-19T10:37:29;2.90;;;2.35;;
47367;SDS011;34646;47.964;7.982;2022-08-19T10:43:32;2.75;;;2.47;;
47367;SDS011;34646;47.964;7.982;2022-08-19T10:49:34;3.58;;;2.15;;
47367;SDS011;34646;47.964;7.982;2022-08-19T10:55:55;2.70;;;2.30;;
47367;SDS011;34646;47.964;7.982;2022-08-19T11:02:14;2.53;;;2.33;;
47367;SDS011;34646;47.964;7.982;2022-08-19T11:08:15;3.13;;;2.47;;
47367;SDS011;34646;47.964;7.982;2022-08-19T11:14:16;2.67;;;2.27;;
47367;SDS011;34646;47.964;7.982;2022-08-19T11:20:20;2.40;;;2.20;;
47367;SDS011;34646;47.964;7.982;2022-08-19T11:26:23;2.30;;;1.95;;
47367;SDS011;34646;47.964;7.982;2022-08-19T11:38:26;2.22;;;1.92;;
47367;SDS011;34646;47.964;7.982;2022-08-19T11:44:27;2.30;;;2.10;;
47367;SDS011;34646;47.964;7.982;2022-08-19T11:50:30;2.58;;;2.05;;
47367;SDS011;34646;47.964;7.982;2022-08-19T11:56:31;2.80;;;2.50;;
47367;SDS011;34646;47.964;7.982;2022-08-19T12:02:32;2.63;;;2.10;;
47367;SDS011;34646;47.964;7.982;2022-08-19T12:08:32;2.33;;;1.93;;
47367;SDS011;34646;47.964;7.982;2022-08-19T12:14:33;3.20;;;2.40;;
47367;SDS011;34646;47.964;7.982;2022-08-19T12:20:35;2.67;;;2.17;;
47367;SDS011;34646;47.964;7.982;2022-08-19T12:26:37;2.53;;;2.33;;
47367;SDS011;34646;47.964;7.982;2022-08-19T12:32:38;2.73;;;2.20;;
47367;SDS011;34646;47.964;7.982;2022-08-19T12:38:39;2.50;;;2.03;;
47367;SDS011;34646;47.964;7.982;2022-08-19T12:44:41;4.28;;;2.67;;
47367;SDS011;34646;47.964;7.982;2022-08-19T12:50:43;2.47;;;2.28;;
47367;SDS011;34646;47.964;7.982;2022-08-19T12:56:48;2.90;;;2.55;;
47367;SDS011;34646;47.964;7.982;2022-08-19T13:02:49;2.83;;;2.57;;
47367;SDS011;34646;47.964;7.982;2022-08-19T13:08:51;2.72;;;2.28;;
47367;SDS011;34646;47.964;7.982;2022-08-19T13:14:52;2.40;;;2.20;;
47367;SDS011;34646;47.964;7.982;2022-08-19T13:20:53;2.80;;;2.50;;
47367;SDS011;34646;47.964;7.982;2022-08-19T13:26:54;3.60;;;2.70;;
47367;SDS011;34646;47.964;7.982;2022-08-19T13:32:54;3.40;;;2.57;;
47367;SDS011;34646;47.964;7.982;2022-08-19T13:39:10;3.15;;;2.80;;
47367;SDS011;34646;47.964;7.982;2022-08-19T13:45:12;2.90;;;2.60;;
47367;SDS011;34646;47.964;7.982;2022-08-19T13:51:15;3.08;;;2.35;;
47367;SDS011;34646;47.964;7.982;2022-08-19T13:57:17;3.03;;;2.60;;
47367;SDS011;34646;47.964;7.982;2022-08-19T14:03:18;2.70;;;2.27;;
47367;SDS011;34646;47.964;7.982;2022-08-19T14:09:18;2.93;;;2.63;;
47367;SDS011;34646;47.964;7.982;2022-08-19T14:15:19;3.27;;;2.73;;
47367;SDS011;34646;47.964;7.982;2022-08-19T14:21:20;2.50;;;2.30;;
47367;SDS011;34646;47.964;7.982;2022-08-19T14:27:23;2.70;;;2.45;;
47367;SDS011;34646;47.964;7.982;2022-08-19T14:33:25;2.85;;;2.53;;
47367;SDS011;34646;47.964;7.982;2022-08-19T14:39:26;2.47;;;2.27;;
47367;SDS011;34646;47.964;7.982;2022-08-19T14:45:27;3.23;;;2.73;;
47367;SDS011;34646;47.964;7.982;2022-08-19T14:51:28;2.80;;;2.60;;
47367;SDS011;34646;47.964;7.982;2022-08-19T14:57:28;2.87;;;2.50;;
47367;SDS011;34646;47.964;7.982;2022-08-19T15:03:29;2.80;;;2.43;;
47367;SDS011;34646;47.964;7.982;2022-08-19T15:09:32;3.13;;;2.83;;
47367;SDS011;34646;47.964;7.982;2022-08-19T15:21:33;2.90;;;2.50;;
47367;SDS011;34646;47.964;7.982;2022-08-19T15:27:34;3.20;;;2.58;;
47367;SDS011;34646;47.964;7.982;2022-08-19T15:33:36;3.05;;;2.75;;
47367;SDS011;34646;47.964;7.982;2022-08-19T15:39:36;3.00;;;2.67;;
47367;SDS011;34646;47.964;7.982;2022-08-19T15:45:37;5.40;;;3.10;;
47367;SDS011;34646;47.964;7.982;2022-08-19T15:51:39;2.80;;;2.47;;
47367;SDS011;34646;47.964;7.982;2022-08-19T15:57:42;3.00;;;2.70;;
47367;SDS011;34646;47.964;7.982;2022-08-19T16:04:15;2.78;;;2.47;;
47367;SDS011;34646;47.964;7.982;2022-08-19T16:10:45;2.92;;;2.63;;
47367;SDS011;34646;47.964;7.982;2022-08-19T16:16:46;3.50;;;2.70;;
47367;SDS011;34646;47.964;7.982;2022-08-19T16:28:48;2.33;;;2.13;;
47367;SDS011;34646;47.964;7.982;2022-08-19T16:34:49;2.57;;;2.37;;
47367;SDS011;34646;47.964;7.982;2022-08-19T16:40:49;2.60;;;2.33;;
47367;SDS011;34646;47.964;7.982;2022-08-19T16:46:53;3.17;;;2.70;;
47367;SDS011;34646;47.964;7.982;2022-08-19T16:52:54;3.50;;;2.20;;
47367;SDS011;34646;47.964;7.982;2022-08-19T16:58:55;2.75;;;2.50;;
47367;SDS011;34646;47.964;7.982;2022-08-19T17:04:58;2.05;;;1.85;;
47367;SDS011;34646;47.964;7.982;2022-08-19T17:10:59;2.70;;;2.47;;
47367;SDS011;34646;47.964;7.982;2022-08-19T17:17:02;2.78;;;2.50;;
47367;SDS011;34646;47.964;7.982;2022-08-19T17:23:03;2.80;;;2.60;;
47367;SDS011;34646;47.964;7.982;2022-08-19T17:35:04;2.60;;;2.30;;
47367;SDS011;34646;47.964;7.982;2022-08-19T17:41:06;2.90;;;2.60;;
47367;SDS011;34646;47.964;7.982;2022-08-19T17:47:06;2.90;;;2.60;;
47367;SDS011;34646;47.964;7.982;2022-08-19T17:53:07;2.30;;;2.10;;
47367;SDS011;34646;47.964;7.982;2022-08-19T17:59:08;2.53;;;2.10;;
47367;SDS011;34646;47.964;7.982;2022-08-19T18:05:09;2.80;;;2.55;;
47367;SDS011;34646;47.964;7.982;2022-08-19T18:11:10;3.03;;;2.42;;
47367;SDS011;34646;47.964;7.982;2022-08-19T18:17:12;2.65;;;2.38;;
47367;SDS011;34646;47.964;7.982;2022-08-19T18:23:15;2.53;;;2.30;;
47367;SDS011;34646;47.964;7.982;2022-08-19T18:29:16;2.55;;;2.35;;
47367;SDS011;34646;47.964;7.982;2022-08-19T18:35:21;3.10;;;2.55;;
47367;SDS011;34646;47.964;7.982;2022-08-19T18:41:25;2.90;;;2.60;;
47367;SDS011;34646;47.964;7.982;2022-08-19T18:47:44;2.58;;;2.38;;
47367;SDS011;34646;47.964;7.982;2022-08-19T18:54:03;2.88;;;2.55;;
47367;SDS011;34646;47.964;7.982;2022-08-19T19:00:04;2.50;;;2.30;;
47367;SDS011;34646;47.964;7.982;2022-08-19T19:06:06;2.58;;;2.25;;
47367;SDS011;34646;47.964;7.982;2022-08-19T19:12:08;2.55;;;2.30;;
47367;SDS011;34646;47.964;7.982;2022-08-19T19:18:10;2.47;;;2.28;;
47367;SDS011;34646;47.964;7.982;2022-08-19T19:24:13;2.80;;;2.50;;
47367;SDS011;34646;47.964;7.982;2022-08-19T19:30:19;2.90;;;2.58;;
47367;SDS011;34646;47.964;7.982;2022-08-19T19:36:24;2.40;;;2.20;;
47367;SDS011;34646;47.964;7.982;2022-08-19T19:42:25;2.87;;;2.57;;
47367;SDS011;34646;47.964;7.982;2022-08-19T19:48:26;2.77;;;2.53;;
47367;SDS011;34646;47.964;7.982;2022-08-19T19:54:27;2.67;;;2.30;;
47367;SDS011;34646;47.964;7.982;2022-08-19T20:00:28;2.40;;;2.00;;
47367;SDS011;34646;47.964;7.982;2022-08-19T20:06:29;2.55;;;2.35;;
47367;SDS011;34646;47.964;7.982;2022-08-19T20:12:30;2.60;;;2.40;;
47367;SDS011;34646;47.964;7.982;2022-08-19T20:18:32;2.72;;;2.30;;
47367;SDS011;34646;47.964;7.982;2022-08-19T20:24:33;2.43;;;2.20;;
47367;SDS011;34646;47.964;7.982;2022-08-19T20:30:35;2.92;;;2.50;;
47367;SDS011;34646;47.964;7.982;2022-08-19T20:36:35;2.80;;;2.53;;
47367;SDS011;34646;47.964;7.982;2022-08-19T20:42:38;3.15;;;2.83;;
47367;SDS011;34646;47.964;7.982;2022-08-19T20:48:40;3.00;;;2.60;;
47367;SDS011;34646;47.964;7.982;2022-08-19T20:54:41;3.03;;;2.67;;
47367;SDS011;34646;47.964;7.982;2022-08-19T21:00:43;2.57;;;2.37;;
47367;SDS011;34646;47.964;7.982;2022-08-19T21:06:44;2.50;;;2.30;;
47367;SDS011;34646;47.964;7.982;2022-08-19T21:12:45;2.80;;;2.50;;
47367;SDS011;34646;47.964;7.982;2022-08-19T21:18:46;2.40;;;2.20;;
47367;SDS011;34646;47.964;7.982;2022-08-19T21:24:47;3.05;;;2.75;;
47367;SDS011;34646;47.964;7.982;2022-08-19T21:30:48;2.60;;;2.30;;
47367;SDS011;34646;47.964;7.982;2022-08-19T21:36:49;2.40;;;2.20;;
47367;SDS011;34646;47.964;7.982;2022-08-19T21:42:49;3.53;;;2.30;;
47367;SDS011;34646;47.964;7.982;2022-08-19T21:48:50;2.55;;;2.20;;
47367;SDS011;34646;47.964;7.982;2022-08-19T21:54:51;2.57;;;2.27;;
47367;SDS011;34646;47.964;7.982;2022-08-19T22:00:53;2.83;;;2.53;;
47367;SDS011;34646;47.964;7.982;2022-08-19T22:06:54;2.50;;;2.30;;
47367;SDS011;34646;47.964;7.982;2022-08-19T22:12:55;2.50;;;2.30;;
47367;SDS011;34646;47.964;7.982;2022-08-19T22:18:56;2.50;;;2.30;;
47367;SDS011;34646;47.964;7.982;2022-08-19T22:25:00;3.03;;;2.60;;
47367;SDS011;34646;47.964;7.982;2022-08-19T22:31:07;2.53;;;2.28;;
47367;SDS011;34646;47.964;7.982;2022-08-19T22:37:08;2.90;;;2.60;;
47367;SDS011;34646;47.964;7.982;2022-08-19T22:43:10;2.73;;;2.43;;
47367;SDS011;34646;47.964;7.982;2022-08-19T22:49:16;2.90;;;2.42;;
47367;SDS011;34646;47.964;7.982;2022-08-19T22:55:16;2.60;;;2.40;;
47367;SDS011;34646;47.964;7.982;2022-08-19T23:01:18;3.60;;;2.57;;
47367;SDS011;34646;47.964;7.982;2022-08-19T23:07:20;2.92;;;2.40;;
47367;SDS011;34646;47.964;7.982;2022-08-19T23:19:23;2.97;;;2.58;;
47367;SDS011;34646;47.964;7.982;2022-08-19T23:25:28;2.27;;;2.07;;
47367;SDS011;34646;47.964;7.982;2022-08-19T23:31:30;3.30;;;2.80;;
47367;SDS011;34646;47.964;7.982;2022-08-19T23:37:31;3.00;;;2.70;;
47367;SDS011;34646;47.964;7.982;2022-08-19T23:43:32;2.83;;;2.60;;
47367;SDS011;34646;47.964;7.982;2022-08-19T23:49:34;2.63;;;2.42;;
47367;SDS011;34646;47.964;7.982;2022-08-19T23:55:36;3.03;;;2.47;;
